Pagrindinis puslapis
METAR-TAF:

METAR-TAF

Oro uostai :

Nanas, Tailandas

platuma: 18-46N, ilguma: 100-46E, Aukštis: 200 m

Dabartinis oras

Ataskaita buvo paskelbta 4 valandos ir 13 minutes, ne 11:00 UTC
Vėjas 1 kt iš Šiaurės
Temperatūra 26°C
Drėgmė 79%
Slėgis 1012 hPa
Matomumas 10 km arba daugiau
nėra debesų žemiau 1500 m ir nėra kamuolinių lietaus debesų

METAR: VTCN 201100Z 01001KT CAVOK 26/22 Q1012 NOSIG

Laikas: 22:13 (15:13 UTC)

Prognozė

Ataskaita buvo paskelbta 4 valandos ir 13 minutes, ne 11:00 UTC
Prognozė galioja nuo 20 metu 12 UTC su 21 metu 12 UTC
Vėjas 5 kt iš Šiaurės Rytų
Matomumas 10 km arba daugiau
Mažai debesys ne aukštis 3500 ft
Tapsmas
nuo 20 metu 21 UTC su 20 metu 23 UTC
Matomumas: 0800 m
rūkas
Tapsmas
nuo 21 metu 01 UTC su 21 metu 03 UTC
Matomumas 10 km arba daugiau

TAF: VTCN 201100Z 2012/2112 05005KT 9999 FEW035 BECMG 2021/2023 0800 FG BECMG 2101/2103 9999 NSW

Orai ataskaitas ir orų prognozės (METAR, TAF).

turimą stotys yra geltonos ir raudonos taškus žemėlapyje.

Perkelti pele per norėdami pamatyti stoties vardą.

Tada spustelėkite, norėdami matyti oro stebėjimo ir prognozės.

Norėdami pakeisti žemėlapį: spustelėkite ant žalios mygtukų su juodo kryžiaus žemyn,; žalią mygtuką su brūkšneliu, jei norite nutolinti; arba žalių rodyklių gretimoms žemėlapius.


METAR-TAF: